createdAt,value
2016-08-16T00:00:02.110Z,1014.4
2016-08-16T00:00:12.117Z,1014.4
2016-08-16T00:00:22.120Z,1014.4
2016-08-16T00:00:32.132Z,1014.4
2016-08-16T00:00:42.142Z,1014.4
2016-08-16T00:00:52.151Z,1014.4
2016-08-16T00:01:01.400Z,1014.4
2016-08-16T00:01:12.156Z,1014.4
2016-08-16T00:01:22.163Z,1014.4
2016-08-16T00:01:32.172Z,1014.4
2016-08-16T00:01:42.187Z,1014.4
2016-08-16T00:01:52.187Z,1014.4
2016-08-16T00:02:02.192Z,1014.4
2016-08-16T00:02:12.207Z,1014.4
2016-08-16T00:02:22.211Z,1014.4
2016-08-16T00:02:31.464Z,1014.4
2016-08-16T00:02:42.220Z,1014.4
2016-08-16T00:02:52.226Z,1014.4
2016-08-16T00:03:02.233Z,1014.4
2016-08-16T00:03:12.241Z,1014.3
2016-08-16T00:03:22.249Z,1014.4
2016-08-16T00:03:32.257Z,1014.3
2016-08-16T00:03:42.264Z,1014.3
2016-08-16T00:03:52.270Z,1014.3
2016-08-16T00:04:02.280Z,1014.3
2016-08-16T00:04:12.284Z,1014.3
2016-08-16T00:04:22.290Z,1014.3
2016-08-16T00:04:32.301Z,1014.4
2016-08-16T00:04:42.311Z,1014.3
2016-08-16T00:04:52.317Z,1014.4
2016-08-16T00:05:02.323Z,1014.3
2016-08-16T00:05:12.330Z,1014.4
2016-08-16T00:05:21.587Z,1014.3
2016-08-16T00:05:32.348Z,1014.3
2016-08-16T00:05:42.349Z,1014.3
2016-08-16T00:05:52.355Z,1014.4
2016-08-16T00:06:02.363Z,1014.3
2016-08-16T00:06:12.371Z,1014.3
2016-08-16T00:06:22.381Z,1014.3
2016-08-16T00:06:32.393Z,1014.3
2016-08-16T00:06:42.403Z,1014.3
2016-08-16T00:06:52.411Z,1014.3
2016-08-16T00:07:02.419Z,1014.4
2016-08-16T00:07:12.429Z,1014.4
2016-08-16T00:07:22.435Z,1014.4
2016-08-16T00:07:32.442Z,1014.4
2016-08-16T00:07:42.450Z,1014.3
2016-08-16T00:07:51.703Z,1014.3
2016-08-16T00:08:02.457Z,1014.3
2016-08-16T00:08:12.463Z,1014.4
2016-08-16T00:08:22.471Z,1014.3
2016-08-16T00:08:32.490Z,1014.3
2016-08-16T00:08:42.496Z,1014.3
2016-08-16T00:08:52.502Z,1014.3
2016-08-16T00:09:02.507Z,1014.4
2016-08-16T00:09:12.522Z,1014.3
2016-08-16T00:09:22.519Z,1014.3
2016-08-16T00:09:32.526Z,1014.3
2016-08-16T00:09:42.536Z,1014.3
2016-08-16T00:09:52.545Z,1014.3
2016-08-16T00:10:02.556Z,1014.3
2016-08-16T00:10:12.558Z,1014.3
2016-08-16T00:10:22.562Z,1014.3
2016-08-16T00:10:32.565Z,1014.3
2016-08-16T00:10:42.571Z,1014.3
2016-08-16T00:10:52.575Z,1014.3
2016-08-16T00:11:02.584Z,1014.3
2016-08-16T00:11:12.589Z,1014.3
2016-08-16T00:11:22.594Z,1014.3
2016-08-16T00:11:32.599Z,1014.3
2016-08-16T00:11:41.854Z,1014.3
2016-08-16T00:11:52.613Z,1014.3
2016-08-16T00:12:02.618Z,1014.3
2016-08-16T00:12:12.623Z,1014.3
2016-08-16T00:12:22.627Z,1014.3
2016-08-16T00:12:32.635Z,1014.3
2016-08-16T00:12:42.640Z,1014.2
2016-08-16T00:12:52.650Z,1014.3
2016-08-16T00:13:02.651Z,1014.3
2016-08-16T00:13:12.661Z,1014.3
2016-08-16T00:13:22.665Z,1014.2
2016-08-16T00:13:32.671Z,1014.3
2016-08-16T00:13:42.679Z,1014.3
2016-08-16T00:13:52.689Z,1014.3
2016-08-16T00:14:02.689Z,1014.3
2016-08-16T00:14:12.703Z,1014.3
2016-08-16T00:14:22.708Z,1014.3
2016-08-16T00:14:32.715Z,1014.3
2016-08-16T00:14:42.718Z,1014.3
2016-08-16T00:14:52.722Z,1014.3
2016-08-16T00:15:02.731Z,1014.3
2016-08-16T00:15:12.737Z,1014.3
2016-08-16T00:15:22.742Z,1014.3
2016-08-16T00:15:32.741Z,1014.3
2016-08-16T00:15:42.791Z,1014.3
2016-08-16T00:15:52.804Z,1014.3
2016-08-16T00:16:02.812Z,1014.3
2016-08-16T00:16:12.824Z,1014.3
2016-08-16T00:16:22.833Z,1014.3
2016-08-16T00:16:32.836Z,1014.3
2016-08-16T00:16:42.844Z,1014.3
2016-08-16T00:16:52.848Z,1014.3
2016-08-16T00:17:02.853Z,1014.3
2016-08-16T00:17:12.857Z,1014.3
2016-08-16T00:17:22.866Z,1014.3
2016-08-16T00:17:32.872Z,1014.3
2016-08-16T00:17:42.881Z,1014.3
2016-08-16T00:17:52.888Z,1014.3
2016-08-16T00:18:02.895Z,1014.3
2016-08-16T00:18:12.901Z,1014.3
2016-08-16T00:18:22.918Z,1014.3
2016-08-16T00:18:32.917Z,1014.3
2016-08-16T00:18:42.173Z,1014.2
2016-08-16T00:18:52.929Z,1014.3
2016-08-16T00:19:02.936Z,1014.3
2016-08-16T00:19:12.950Z,1014.2
2016-08-16T00:19:22.197Z,1014.3
2016-08-16T00:19:32.955Z,1014.3
2016-08-16T00:19:42.958Z,1014.2
2016-08-16T00:19:52.969Z,1014.2
2016-08-16T00:20:02.975Z,1014.3
2016-08-16T00:20:12.982Z,1014.2
2016-08-16T00:20:22.988Z,1014.3
2016-08-16T00:20:33.010Z,1014.3
2016-08-16T00:20:43.007Z,1014.3
2016-08-16T00:20:53.016Z,1014.3
2016-08-16T00:21:03.022Z,1014.2
2016-08-16T00:21:13.031Z,1014.2
2016-08-16T00:21:23.041Z,1014.3
2016-08-16T00:21:33.046Z,1014.2
2016-08-16T00:21:43.052Z,1014.3
2016-08-16T00:21:53.061Z,1014.2
2016-08-16T00:22:03.069Z,1014.2
2016-08-16T00:22:13.080Z,1014.2
2016-08-16T00:22:22.333Z,1014.2
2016-08-16T00:22:32.341Z,1014.3
2016-08-16T00:22:43.104Z,1014.3
2016-08-16T00:22:53.121Z,1014.2
2016-08-16T00:23:03.129Z,1014.2
2016-08-16T00:23:12.388Z,1014.2
2016-08-16T00:23:23.156Z,1014.2
2016-08-16T00:23:33.162Z,1014.2
2016-08-16T00:23:42.424Z,1014.2
2016-08-16T00:23:53.191Z,1014.2
2016-08-16T00:24:03.193Z,1014.2
2016-08-16T00:24:13.202Z,1014.2
2016-08-16T00:24:23.210Z,1014.2
2016-08-16T00:24:33.216Z,1014.2
2016-08-16T00:24:43.216Z,1014.2
2016-08-16T00:24:53.228Z,1014.2
2016-08-16T00:25:03.238Z,1014.2
2016-08-16T00:25:13.236Z,1014.2
2016-08-16T00:25:23.242Z,1014.2
2016-08-16T00:25:33.255Z,1014.2
2016-08-16T00:25:43.267Z,1014.2
2016-08-16T00:25:52.525Z,1014.2
2016-08-16T00:26:02.537Z,1014.2
2016-08-16T00:26:13.301Z,1014.2
2016-08-16T00:26:23.303Z,1014.2
2016-08-16T00:26:33.316Z,1014.2
2016-08-16T00:26:42.578Z,1014.2
2016-08-16T00:26:52.582Z,1014.2
2016-08-16T00:27:03.344Z,1014.2
2016-08-16T00:27:13.349Z,1014.2
2016-08-16T00:27:23.357Z,1014.2
2016-08-16T00:27:33.367Z,1014.2
2016-08-16T00:27:43.368Z,1014.2
2016-08-16T00:27:53.377Z,1014.2
2016-08-16T00:28:03.381Z,1014.2
2016-08-16T00:28:13.395Z,1014.2
2016-08-16T00:28:23.410Z,1014.2
2016-08-16T00:28:33.413Z,1014.2
2016-08-16T00:28:42.671Z,1014.2
2016-08-16T00:28:53.429Z,1014.2
2016-08-16T00:29:03.437Z,1014.2
2016-08-16T00:29:13.444Z,1014.2
2016-08-16T00:29:23.447Z,1014.2
2016-08-16T00:29:33.452Z,1014.2
2016-08-16T00:29:43.463Z,1014.2
2016-08-16T00:29:53.471Z,1014.2
2016-08-16T00:30:03.486Z,1014.2
2016-08-16T00:30:13.493Z,1014.2
2016-08-16T00:30:23.498Z,1014.2
2016-08-16T00:30:32.758Z,1014.2
2016-08-16T00:30:43.512Z,1014.2
2016-08-16T00:30:53.519Z,1014.2
2016-08-16T00:31:03.524Z,1014.2
2016-08-16T00:31:13.533Z,1014.2
2016-08-16T00:31:23.544Z,1014.2
2016-08-16T00:31:33.550Z,1014.2
2016-08-16T00:31:43.562Z,1014.2
2016-08-16T00:31:53.578Z,1014.2
2016-08-16T00:32:03.579Z,1014.2
2016-08-16T00:32:13.586Z,1014.2
2016-08-16T00:32:23.592Z,1014.2
2016-08-16T00:32:33.599Z,1014.2
2016-08-16T00:32:43.606Z,1014.2
2016-08-16T00:32:53.612Z,1014.2
2016-08-16T00:33:03.625Z,1014.2
2016-08-16T00:33:13.631Z,1014.1
2016-08-16T00:33:23.643Z,1014.2
2016-08-16T00:33:33.650Z,1014.1
2016-08-16T00:33:43.667Z,1014.1
2016-08-16T00:33:53.676Z,1014.1
2016-08-16T00:34:02.928Z,1014.1
2016-08-16T00:34:13.684Z,1014.2
2016-08-16T00:34:23.695Z,1014.2
2016-08-16T00:34:33.700Z,1014.2
2016-08-16T00:34:43.706Z,1014.1
2016-08-16T00:34:52.959Z,1014.2
2016-08-16T00:35:03.767Z,1014.2
2016-08-16T00:35:13.776Z,1014.2
2016-08-16T00:35:23.792Z,1014.1
2016-08-16T00:35:33.793Z,1014.2
2016-08-16T00:35:43.052Z,1014.1
2016-08-16T00:35:53.806Z,1014.2
2016-08-16T00:36:03.811Z,1014.2
2016-08-16T00:36:13.822Z,1014.2
2016-08-16T00:36:23.831Z,1014.1
2016-08-16T00:36:33.837Z,1014.1
2016-08-16T00:36:43.840Z,1014.1
2016-08-16T00:36:53.842Z,1014.1
2016-08-16T00:37:03.850Z,1014.1
2016-08-16T00:37:13.862Z,1014.1
2016-08-16T00:37:23.875Z,1014.2
2016-08-16T00:37:33.883Z,1014.1
2016-08-16T00:37:43.893Z,1014.1
2016-08-16T00:37:53.895Z,1014.1
2016-08-16T00:38:03.903Z,1014.1
2016-08-16T00:38:13.908Z,1014.1
2016-08-16T00:38:23.914Z,1014.1
2016-08-16T00:38:33.918Z,1014.1
2016-08-16T00:38:43.923Z,1014.1
2016-08-16T00:38:53.934Z,1014.1
2016-08-16T00:39:03.939Z,1014.1
2016-08-16T00:39:13.944Z,1014.1
2016-08-16T00:39:23.955Z,1014.1
2016-08-16T00:39:33.965Z,1014.1
2016-08-16T00:39:43.970Z,1014.1
2016-08-16T00:39:53.974Z,1014.1
2016-08-16T00:40:03.993Z,1014.1
2016-08-16T00:40:13.996Z,1014.1
2016-08-16T00:40:24.010Z,1014.1
2016-08-16T00:40:34.015Z,1014
2016-08-16T00:40:44.023Z,1014.1
2016-08-16T00:40:54.030Z,1014.1
2016-08-16T00:41:03.279Z,1014.1
2016-08-16T00:41:14.084Z,1014
2016-08-16T00:41:24.088Z,1014
2016-08-16T00:41:34.097Z,1014
2016-08-16T00:41:44.103Z,1014.1
2016-08-16T00:41:54.110Z,1014
2016-08-16T00:42:04.122Z,1014
2016-08-16T00:42:13.382Z,1014
2016-08-16T00:42:24.143Z,1014.1
2016-08-16T00:42:33.400Z,1014
2016-08-16T00:42:44.160Z,1014
2016-08-16T00:42:54.165Z,1014
2016-08-16T00:43:04.173Z,1014
2016-08-16T00:43:14.183Z,1014
2016-08-16T00:43:24.186Z,1014
2016-08-16T00:43:34.197Z,1014.1
2016-08-16T00:43:44.205Z,1014
2016-08-16T00:43:54.208Z,1014
2016-08-16T00:44:04.219Z,1014
2016-08-16T00:44:14.227Z,1014
2016-08-16T00:44:24.232Z,1014
2016-08-16T00:44:34.241Z,1014
2016-08-16T00:44:44.252Z,1014
2016-08-16T00:44:54.258Z,1014
2016-08-16T00:45:04.269Z,1014
2016-08-16T00:45:14.278Z,1014
2016-08-16T00:45:24.288Z,1014
2016-08-16T00:45:34.299Z,1014
2016-08-16T00:45:44.306Z,1014
2016-08-16T00:45:53.558Z,1014
2016-08-16T00:46:04.316Z,1014.1
2016-08-16T00:46:14.322Z,1014
2016-08-16T00:46:24.331Z,1014.1
2016-08-16T00:46:34.333Z,1014.1
2016-08-16T00:46:44.351Z,1014
2016-08-16T00:46:54.359Z,1014.1
2016-08-16T00:47:04.374Z,1014
2016-08-16T00:47:14.380Z,1014
2016-08-16T00:47:24.383Z,1014.1
2016-08-16T00:47:34.387Z,1014.1
2016-08-16T00:47:44.392Z,1014.1
2016-08-16T00:47:54.404Z,1014
2016-08-16T00:48:04.413Z,1014
2016-08-16T00:48:14.415Z,1014
2016-08-16T00:48:24.427Z,1014
2016-08-16T00:48:34.436Z,1014
2016-08-16T00:48:44.439Z,1014.1
2016-08-16T00:48:54.452Z,1014
2016-08-16T00:49:04.454Z,1014.1
2016-08-16T00:49:14.457Z,1014.1
2016-08-16T00:49:23.715Z,1014
2016-08-16T00:49:34.473Z,1014.1
2016-08-16T00:49:44.474Z,1014
2016-08-16T00:49:54.483Z,1014.1
2016-08-16T00:50:03.739Z,1014.1
2016-08-16T00:50:14.498Z,1014.1
2016-08-16T00:50:24.502Z,1014
2016-08-16T00:50:34.509Z,1014
2016-08-16T00:50:44.512Z,1014
2016-08-16T00:50:54.516Z,1014.1
2016-08-16T00:51:04.522Z,1014
2016-08-16T00:51:14.528Z,1014.1
2016-08-16T00:51:23.790Z,1014.1
2016-08-16T00:51:34.543Z,1014
2016-08-16T00:51:44.573Z,1014
2016-08-16T00:51:53.817Z,1014
2016-08-16T00:52:04.574Z,1014
2016-08-16T00:52:14.583Z,1014
2016-08-16T00:52:24.589Z,1014
2016-08-16T00:52:34.594Z,1014
2016-08-16T00:52:43.858Z,1014
2016-08-16T00:52:54.610Z,1014
2016-08-16T00:53:04.618Z,1014
2016-08-16T00:53:14.624Z,1014
2016-08-16T00:53:24.630Z,1014
2016-08-16T00:53:34.636Z,1014
2016-08-16T00:53:44.651Z,1014
2016-08-16T00:53:54.667Z,1014
2016-08-16T00:54:04.669Z,1014
2016-08-16T00:54:14.722Z,1014
2016-08-16T00:54:24.731Z,1014
2016-08-16T00:54:34.741Z,1014
2016-08-16T00:54:44.745Z,1014
2016-08-16T00:54:54.003Z,1014
2016-08-16T00:55:04.801Z,1014
2016-08-16T00:55:14.061Z,1014
2016-08-16T00:55:25.024Z,1014
2016-08-16T00:55:35.315Z,1014
2016-08-16T00:55:44.301Z,1014
2016-08-16T00:55:55.096Z,1014
2016-08-16T00:56:04.355Z,1014
2016-08-16T00:56:14.949Z,1014
2016-08-16T00:56:24.951Z,1013.9
2016-08-16T00:56:35.004Z,1014
2016-08-16T00:56:45.011Z,1014
2016-08-16T00:56:55.219Z,1014
2016-08-16T00:57:05.261Z,1013.9
2016-08-16T00:57:14.524Z,1014
2016-08-16T00:57:25.272Z,1013.9
2016-08-16T00:57:34.534Z,1013.9
2016-08-16T00:57:45.404Z,1014
2016-08-16T00:57:55.327Z,1013.9
2016-08-16T00:58:05.479Z,1013.9
2016-08-16T00:58:15.403Z,1013.9
2016-08-16T00:58:25.455Z,1013.9
2016-08-16T00:58:34.705Z,1013.9
2016-08-16T00:58:44.752Z,1013.9
2016-08-16T00:58:55.574Z,1013.9
2016-08-16T00:59:05.560Z,1013.9
2016-08-16T00:59:15.617Z,1013.9
2016-08-16T00:59:25.590Z,1013.9
2016-08-16T00:59:35.676Z,1013.9
2016-08-16T00:59:45.694Z,1013.9
2016-08-16T00:59:54.896Z,1013.9
2016-08-16T01:00:04.909Z,1013.9
2016-08-16T01:00:15.008Z,1013.9
2016-08-16T01:00:25.744Z,1013.9
2016-08-16T01:00:36.019Z,1013.9
2016-08-16T01:00:45.766Z,1013.9
2016-08-16T01:00:55.734Z,1013.9
2016-08-16T01:01:05.043Z,1013.9
2016-08-16T01:01:15.659Z,1013.9
2016-08-16T01:01:25.785Z,1014
2016-08-16T01:01:35.712Z,1014
2016-08-16T01:01:44.972Z,1014
2016-08-16T01:01:55.726Z,1014
2016-08-16T01:02:04.984Z,1014
2016-08-16T01:02:15.744Z,1014
2016-08-16T01:02:25.753Z,1014
2016-08-16T01:02:35.764Z,1014
2016-08-16T01:02:45.767Z,1014
2016-08-16T01:02:55.778Z,1014
2016-08-16T01:03:05.779Z,1014
2016-08-16T01:03:15.785Z,1014
2016-08-16T01:03:25.797Z,1013.9
2016-08-16T01:03:35.810Z,1013.9
2016-08-16T01:03:45.812Z,1013.9
2016-08-16T01:03:55.820Z,1014
2016-08-16T01:04:05.827Z,1013.9
2016-08-16T01:04:15.833Z,1014
2016-08-16T01:04:25.842Z,1014
2016-08-16T01:04:35.850Z,1014
2016-08-16T01:04:45.859Z,1014
2016-08-16T01:04:55.875Z,1014
2016-08-16T01:05:05.885Z,1013.9
2016-08-16T01:05:15.894Z,1013.9
2016-08-16T01:05:25.907Z,1014
2016-08-16T01:05:35.915Z,1013.9
2016-08-16T01:05:45.168Z,1013.9
2016-08-16T01:05:55.929Z,1014
2016-08-16T01:06:05.936Z,1014
2016-08-16T01:06:15.187Z,1014
2016-08-16T01:06:25.938Z,1013.9
2016-08-16T01:06:35.943Z,1014
2016-08-16T01:06:45.952Z,1014
2016-08-16T01:06:55.963Z,1013.9
2016-08-16T01:07:05.969Z,1013.9
2016-08-16T01:07:15.978Z,1014
2016-08-16T01:07:25.992Z,1013.9
2016-08-16T01:07:35.996Z,1013.9
2016-08-16T01:07:46.007Z,1014
2016-08-16T01:07:56.014Z,1014
2016-08-16T01:08:06.017Z,1014
2016-08-16T01:08:16.031Z,1013.9
2016-08-16T01:08:26.035Z,1014
2016-08-16T01:08:36.054Z,1013.9
2016-08-16T01:08:46.063Z,1014
2016-08-16T01:08:56.076Z,1013.9
2016-08-16T01:09:06.090Z,1014
2016-08-16T01:09:16.095Z,1014
2016-08-16T01:09:26.105Z,1013.9
2016-08-16T01:09:36.120Z,1014
2016-08-16T01:09:46.130Z,1014
2016-08-16T01:09:56.135Z,1014
2016-08-16T01:10:06.140Z,1014
2016-08-16T01:10:16.149Z,1014
2016-08-16T01:10:26.154Z,1014
2016-08-16T01:10:36.161Z,1014
2016-08-16T01:10:46.164Z,1013.9
2016-08-16T01:10:56.172Z,1013.9
2016-08-16T01:11:06.181Z,1013.9
2016-08-16T01:11:16.188Z,1014
2016-08-16T01:11:26.201Z,1014
2016-08-16T01:11:36.229Z,1013.9
2016-08-16T01:11:46.239Z,1013.9
2016-08-16T01:11:56.238Z,1014
2016-08-16T01:12:06.258Z,1014
2016-08-16T01:12:16.267Z,1013.9
2016-08-16T01:12:26.280Z,1014
2016-08-16T01:12:36.280Z,1014
2016-08-16T01:12:46.286Z,1014
2016-08-16T01:12:55.540Z,1014
2016-08-16T01:13:06.298Z,1014
2016-08-16T01:13:16.305Z,1013.9
2016-08-16T01:13:26.310Z,1014
2016-08-16T01:13:36.314Z,1014
2016-08-16T01:13:46.319Z,1014
2016-08-16T01:13:56.324Z,1013.9
2016-08-16T01:14:06.333Z,1013.9
2016-08-16T01:14:16.349Z,1014
2016-08-16T01:14:26.360Z,1014
2016-08-16T01:14:36.368Z,1014
2016-08-16T01:14:46.384Z,1014
2016-08-16T01:14:56.387Z,1013.9
2016-08-16T01:15:06.394Z,1013.9
2016-08-16T01:15:15.648Z,1013.9
2016-08-16T01:15:26.406Z,1014
2016-08-16T01:15:36.409Z,1013.9
2016-08-16T01:15:46.415Z,1013.9
2016-08-16T01:15:55.673Z,1013.9
2016-08-16T01:16:06.434Z,1013.9
2016-08-16T01:16:16.454Z,1013.9
2016-08-16T01:16:26.455Z,1014
2016-08-16T01:16:36.461Z,1013.9
2016-08-16T01:16:46.469Z,1013.9
2016-08-16T01:16:56.480Z,1013.9
2016-08-16T01:17:05.738Z,1013.9
2016-08-16T01:17:16.495Z,1013.9
2016-08-16T01:17:26.503Z,1013.9
2016-08-16T01:17:36.507Z,1013.9
2016-08-16T01:17:46.517Z,1013.9
2016-08-16T01:17:56.525Z,1013.9
2016-08-16T01:18:06.535Z,1014
2016-08-16T01:18:16.547Z,1013.9
2016-08-16T01:18:26.560Z,1013.9
2016-08-16T01:18:36.565Z,1013.9
2016-08-16T01:18:46.575Z,1013.9
2016-08-16T01:18:55.830Z,1013.9
2016-08-16T01:19:06.591Z,1014
2016-08-16T01:19:16.597Z,1013.9
2016-08-16T01:19:26.607Z,1013.9
2016-08-16T01:19:36.610Z,1013.9
2016-08-16T01:19:46.619Z,1013.9
2016-08-16T01:19:56.646Z,1013.9
2016-08-16T01:20:06.661Z,1013.9
2016-08-16T01:20:16.667Z,1013.9
2016-08-16T01:20:26.678Z,1014
2016-08-16T01:20:36.680Z,1014
2016-08-16T01:20:46.689Z,1014
2016-08-16T01:20:56.702Z,1014
2016-08-16T01:21:06.709Z,1014
2016-08-16T01:21:16.719Z,1013.9
2016-08-16T01:21:26.723Z,1014
2016-08-16T01:21:36.733Z,1013.9
2016-08-16T01:21:45.993Z,1014
2016-08-16T01:21:56.747Z,1014
2016-08-16T01:22:06.758Z,1014
2016-08-16T01:22:16.771Z,1013.9
2016-08-16T01:22:26.031Z,1013.9
2016-08-16T01:22:36.791Z,1013.9
2016-08-16T01:22:46.800Z,1014
2016-08-16T01:22:56.808Z,1013.9
2016-08-16T01:23:06.823Z,1013.9
2016-08-16T01:23:16.835Z,1013.9
2016-08-16T01:23:26.846Z,1013.9
2016-08-16T01:23:36.854Z,1013.9
2016-08-16T01:23:46.871Z,1013.9
2016-08-16T01:23:56.873Z,1014
2016-08-16T01:24:06.880Z,1014
2016-08-16T01:24:16.882Z,1014
2016-08-16T01:24:26.892Z,1013.9
2016-08-16T01:24:36.905Z,1013.9
2016-08-16T01:24:46.913Z,1013.9
2016-08-16T01:24:56.921Z,1013.9
2016-08-16T01:25:06.933Z,1013.9
2016-08-16T01:25:16.937Z,1013.9
2016-08-16T01:25:26.944Z,1013.9
2016-08-16T01:25:36.203Z,1013.9
2016-08-16T01:25:46.963Z,1013.9
2016-08-16T01:25:56.974Z,1013.9
2016-08-16T01:26:06.989Z,1013.9
2016-08-16T01:26:16.996Z,1013.9
2016-08-16T01:26:26.997Z,1013.9
2016-08-16T01:26:37.052Z,1013.9
2016-08-16T01:26:47.057Z,1013.9
2016-08-16T01:26:57.065Z,1013.9
2016-08-16T01:27:07.075Z,1013.9
2016-08-16T01:27:17.080Z,1013.9
2016-08-16T01:27:27.088Z,1013.9
2016-08-16T01:27:37.093Z,1013.9
2016-08-16T01:27:47.110Z,1013.9
2016-08-16T01:27:57.115Z,1013.9
2016-08-16T01:28:07.123Z,1013.9
2016-08-16T01:28:17.137Z,1013.9
2016-08-16T01:28:27.142Z,1013.9
2016-08-16T01:28:37.147Z,1013.9
2016-08-16T01:28:47.151Z,1013.9
2016-08-16T01:28:57.162Z,1013.9
2016-08-16T01:29:07.172Z,1013.9
2016-08-16T01:29:17.177Z,1013.9
2016-08-16T01:29:27.187Z,1013.9
2016-08-16T01:29:37.202Z,1013.9
2016-08-16T01:29:47.211Z,1013.9
2016-08-16T01:29:57.216Z,1013.9
2016-08-16T01:30:07.235Z,1013.9
2016-08-16T01:30:17.244Z,1013.9
2016-08-16T01:30:27.252Z,1013.9
2016-08-16T01:30:37.260Z,1013.9
2016-08-16T01:30:47.264Z,1013.9
2016-08-16T01:30:57.280Z,1013.9
2016-08-16T01:31:07.294Z,1013.9
2016-08-16T01:31:17.303Z,1013.9
2016-08-16T01:31:27.310Z,1013.9
2016-08-16T01:31:37.315Z,1013.9
2016-08-16T01:31:47.320Z,1013.9
2016-08-16T01:31:57.327Z,1013.9
2016-08-16T01:32:07.336Z,1013.9
2016-08-16T01:32:17.346Z,1013.9
2016-08-16T01:32:27.357Z,1013.9
2016-08-16T01:32:37.366Z,1013.9
2016-08-16T01:32:46.621Z,1013.9
2016-08-16T01:32:57.386Z,1013.9
2016-08-16T01:33:07.398Z,1013.9
2016-08-16T01:33:17.406Z,1013.9
2016-08-16T01:33:27.412Z,1013.9
2016-08-16T01:33:37.418Z,1013.9
2016-08-16T01:33:47.423Z,1013.8
2016-08-16T01:33:56.678Z,1013.9
2016-08-16T01:34:07.434Z,1013.9
2016-08-16T01:34:17.443Z,1013.9
2016-08-16T01:34:26.693Z,1013.9
2016-08-16T01:34:37.452Z,1013.9
2016-08-16T01:34:46.704Z,1013.9
2016-08-16T01:34:57.463Z,1013.9
2016-08-16T01:35:07.469Z,1013.9
2016-08-16T01:35:17.473Z,1013.9
2016-08-16T01:35:27.486Z,1013.9
2016-08-16T01:35:37.492Z,1013.9
2016-08-16T01:35:47.501Z,1013.9
2016-08-16T01:35:57.512Z,1013.9
2016-08-16T01:36:07.514Z,1013.9
2016-08-16T01:36:17.527Z,1013.9
2016-08-16T01:36:27.537Z,1013.9
2016-08-16T01:36:37.544Z,1013.9
2016-08-16T01:36:47.547Z,1013.8
2016-08-16T01:36:57.556Z,1013.9
2016-08-16T01:37:07.562Z,1013.9
2016-08-16T01:37:17.566Z,1013.9
2016-08-16T01:37:27.573Z,1013.9
2016-08-16T01:37:37.581Z,1013.9
2016-08-16T01:37:47.587Z,1013.8
2016-08-16T01:37:57.596Z,1013.9
2016-08-16T01:38:07.602Z,1013.9
2016-08-16T01:38:17.611Z,1013.8
2016-08-16T01:38:26.866Z,1013.8
2016-08-16T01:38:37.625Z,1013.9
2016-08-16T01:38:46.875Z,1013.8
2016-08-16T01:38:57.638Z,1013.8
2016-08-16T01:39:06.891Z,1013.9
2016-08-16T01:39:16.904Z,1013.8
2016-08-16T01:39:27.659Z,1013.8
2016-08-16T01:39:37.666Z,1013.8
2016-08-16T01:39:47.676Z,1013.9
2016-08-16T01:39:57.686Z,1013.8
2016-08-16T01:40:07.689Z,1013.8
2016-08-16T01:40:17.703Z,1013.8
2016-08-16T01:40:27.706Z,1013.9
2016-08-16T01:40:37.711Z,1013.8
2016-08-16T01:40:47.721Z,1013.9
2016-08-16T01:40:57.732Z,1013.8
2016-08-16T01:41:07.738Z,1013.9
2016-08-16T01:41:17.743Z,1013.9
2016-08-16T01:41:27.755Z,1013.8
2016-08-16T01:41:37.758Z,1013.8
2016-08-16T01:41:47.773Z,1013.8
2016-08-16T01:41:57.771Z,1013.8
2016-08-16T01:42:07.776Z,1013.8
2016-08-16T01:42:17.784Z,1013.8
2016-08-16T01:42:27.789Z,1013.8
2016-08-16T01:42:37.837Z,1013.8
2016-08-16T01:42:47.847Z,1013.8
2016-08-16T01:42:57.853Z,1013.8
2016-08-16T01:43:07.109Z,1013.8
2016-08-16T01:43:17.118Z,1013.8
2016-08-16T01:43:27.126Z,1013.8
2016-08-16T01:43:37.890Z,1013.9
2016-08-16T01:43:47.895Z,1013.8
2016-08-16T01:43:57.907Z,1013.8
2016-08-16T01:44:07.912Z,1013.8
2016-08-16T01:44:17.916Z,1013.8
2016-08-16T01:44:27.180Z,1013.8
2016-08-16T01:44:37.938Z,1013.8
2016-08-16T01:44:47.948Z,1013.8
2016-08-16T01:44:57.956Z,1013.8
2016-08-16T01:45:07.964Z,1013.8
2016-08-16T01:45:17.972Z,1013.8
2016-08-16T01:45:27.977Z,1013.8
2016-08-16T01:45:37.988Z,1013.8
2016-08-16T01:45:47.998Z,1013.8
2016-08-16T01:45:58.004Z,1013.8
2016-08-16T01:46:08.009Z,1013.8
2016-08-16T01:46:18.020Z,1013.8
2016-08-16T01:46:28.026Z,1013.8
2016-08-16T01:46:38.037Z,1013.8
2016-08-16T01:46:48.051Z,1013.8
2016-08-16T01:46:58.060Z,1013.8
2016-08-16T01:47:08.069Z,1013.8
2016-08-16T01:47:18.079Z,1013.8
2016-08-16T01:47:28.089Z,1013.8
2016-08-16T01:47:38.099Z,1013.8
2016-08-16T01:47:48.106Z,1013.8
2016-08-16T01:47:58.118Z,1013.8
2016-08-16T01:48:08.126Z,1013.8
2016-08-16T01:48:17.385Z,1013.8
2016-08-16T01:48:28.149Z,1013.8
2016-08-16T01:48:38.149Z,1013.8
2016-08-16T01:48:48.165Z,1013.8
2016-08-16T01:48:57.416Z,1013.8
2016-08-16T01:49:08.227Z,1013.7
2016-08-16T01:49:18.232Z,1013.8
2016-08-16T01:49:27.493Z,1013.8
2016-08-16T01:49:38.252Z,1013.8
2016-08-16T01:49:48.259Z,1013.8
2016-08-16T01:49:57.518Z,1013.8
2016-08-16T01:50:08.277Z,1013.8
2016-08-16T01:50:17.567Z,1013.8
2016-08-16T01:50:28.328Z,1013.8
2016-08-16T01:50:38.337Z,1013.8
2016-08-16T01:50:48.348Z,1013.8
2016-08-16T01:50:58.358Z,1013.8
2016-08-16T01:51:07.614Z,1013.8
2016-08-16T01:51:18.373Z,1013.8
2016-08-16T01:51:28.383Z,1013.8
2016-08-16T01:51:38.390Z,1013.8
2016-08-16T01:51:48.392Z,1013.8
2016-08-16T01:51:58.404Z,1013.8
2016-08-16T01:52:08.410Z,1013.8
2016-08-16T01:52:18.424Z,1013.8
2016-08-16T01:52:28.429Z,1013.8
2016-08-16T01:52:38.436Z,1013.8
2016-08-16T01:52:48.440Z,1013.8
2016-08-16T01:52:58.448Z,1013.8
2016-08-16T01:53:08.455Z,1013.8
2016-08-16T01:53:18.460Z,1013.8
2016-08-16T01:53:28.464Z,1013.8
2016-08-16T01:53:38.471Z,1013.8
2016-08-16T01:53:48.476Z,1013.8
2016-08-16T01:53:58.489Z,1013.8
2016-08-16T01:54:08.488Z,1013.8
2016-08-16T01:54:18.495Z,1013.8
2016-08-16T01:54:28.503Z,1013.8
2016-08-16T01:54:38.515Z,1013.8
2016-08-16T01:54:47.764Z,1013.8
2016-08-16T01:54:58.517Z,1013.8
2016-08-16T01:55:08.523Z,1013.8
2016-08-16T01:55:18.531Z,1013.7
2016-08-16T01:55:28.538Z,1013.8
2016-08-16T01:55:38.545Z,1013.8
2016-08-16T01:55:48.547Z,1013.8
2016-08-16T01:55:57.798Z,1013.8
2016-08-16T01:56:08.564Z,1013.8
2016-08-16T01:56:18.570Z,1013.8
2016-08-16T01:56:27.832Z,1013.8
2016-08-16T01:56:37.839Z,1013.7
2016-08-16T01:56:47.847Z,1013.8
2016-08-16T01:56:58.064Z,1013.8
2016-08-16T01:57:08.635Z,1013.7
2016-08-16T01:57:18.638Z,1013.7
2016-08-16T01:57:28.649Z,1013.7
2016-08-16T01:57:37.908Z,1013.7
2016-08-16T01:57:48.668Z,1013.7
2016-08-16T01:57:58.672Z,1013.7
2016-08-16T01:58:08.678Z,1013.7
2016-08-16T01:58:18.683Z,1013.7
2016-08-16T01:58:28.688Z,1013.7
2016-08-16T01:58:38.697Z,1013.7
2016-08-16T01:58:48.705Z,1013.7
2016-08-16T01:58:58.713Z,1013.7
2016-08-16T01:59:08.716Z,1013.7
2016-08-16T01:59:18.728Z,1013.7
2016-08-16T01:59:28.777Z,1013.7
2016-08-16T01:59:38.794Z,1013.8
2016-08-16T01:59:48.796Z,1013.8
2016-08-16T01:59:58.807Z,1013.7
2016-08-16T02:00:08.817Z,1013.8
2016-08-16T02:00:18.828Z,1013.7
2016-08-16T02:00:28.078Z,1013.7
2016-08-16T02:00:38.134Z,1013.7
2016-08-16T02:00:48.885Z,1013.7
2016-08-16T02:00:58.894Z,1013.7
2016-08-16T02:01:08.898Z,1013.7
2016-08-16T02:01:18.903Z,1013.7
2016-08-16T02:01:28.151Z,1013.7
2016-08-16T02:01:38.907Z,1013.7
2016-08-16T02:01:48.915Z,1013.7
2016-08-16T02:01:58.919Z,1013.7
2016-08-16T02:02:08.924Z,1013.7
2016-08-16T02:02:18.178Z,1013.7
2016-08-16T02:02:28.943Z,1013.7
2016-08-16T02:02:38.949Z,1013.7
2016-08-16T02:02:48.955Z,1013.7
2016-08-16T02:02:58.212Z,1013.7
2016-08-16T02:03:08.975Z,1013.7
2016-08-16T02:03:18.978Z,1013.7
2016-08-16T02:03:28.988Z,1013.7
2016-08-16T02:03:38.998Z,1013.7
2016-08-16T02:03:49.007Z,1013.7
2016-08-16T02:03:59.020Z,1013.7
2016-08-16T02:04:09.023Z,1013.7
2016-08-16T02:04:19.034Z,1013.7
2016-08-16T02:04:29.047Z,1013.7
2016-08-16T02:04:39.067Z,1013.7
2016-08-16T02:04:49.071Z,1013.7
2016-08-16T02:04:59.075Z,1013.7
2016-08-16T02:05:09.081Z,1013.7
2016-08-16T02:05:19.086Z,1013.7
2016-08-16T02:05:29.089Z,1013.7
2016-08-16T02:05:39.099Z,1013.7
2016-08-16T02:05:49.103Z,1013.7
2016-08-16T02:05:59.108Z,1013.7
2016-08-16T02:06:09.116Z,1013.7
2016-08-16T02:06:19.119Z,1013.7